sensor_id;sensor_type;location;lat;lon;timestamp;pressure;altitude;pressure_sealevel;temperature;humidity
78488;BME280;67885;49.758;9.582;2023-03-14T00:00:39;97390.34;;;14.59;56.30
78488;BME280;67885;49.758;9.582;2023-03-14T00:03:05;97381.50;;;14.52;57.00
78488;BME280;67885;49.758;9.582;2023-03-14T00:05:33;97363.56;;;14.17;57.23
78488;BME280;67885;49.758;9.582;2023-03-14T00:08:00;97393.22;;;14.36;57.61
78488;BME280;67885;49.758;9.582;2023-03-14T00:10:26;97393.63;;;14.32;57.82
78488;BME280;67885;49.758;9.582;2023-03-14T00:12:53;97381.94;;;14.12;58.07
78488;BME280;67885;49.758;9.582;2023-03-14T00:15:21;97372.69;;;14.29;57.50
78488;BME280;67885;49.758;9.582;2023-03-14T00:17:48;97352.09;;;14.16;57.85
78488;BME280;67885;49.758;9.582;2023-03-14T00:20:15;97370.59;;;14.25;57.93
78488;BME280;67885;49.758;9.582;2023-03-14T00:22:41;97372.63;;;14.23;58.23
78488;BME280;67885;49.758;9.582;2023-03-14T00:25:10;97375.06;;;14.18;58.22
78488;BME280;67885;49.758;9.582;2023-03-14T00:27:37;97379.34;;;14.19;58.02
78488;BME280;67885;49.758;9.582;2023-03-14T00:30:05;97369.72;;;14.18;58.37
78488;BME280;67885;49.758;9.582;2023-03-14T00:32:34;97343.94;;;13.96;57.93
78488;BME280;67885;49.758;9.582;2023-03-14T00:35:01;97371.06;;;14.07;57.75
78488;BME280;67885;49.758;9.582;2023-03-14T00:37:28;97359.31;;;14.01;57.92
78488;BME280;67885;49.758;9.582;2023-03-14T00:39:55;97384.06;;;14.16;58.67
78488;BME280;67885;49.758;9.582;2023-03-14T00:42:23;97383.84;;;14.18;58.70
78488;BME280;67885;49.758;9.582;2023-03-14T00:44:50;97388.78;;;14.21;57.40
78488;BME280;67885;49.758;9.582;2023-03-14T00:47:17;97395.78;;;14.22;58.18
78488;BME280;67885;49.758;9.582;2023-03-14T00:49:45;97393.09;;;14.22;57.99
78488;BME280;67885;49.758;9.582;2023-03-14T00:52:12;97394.38;;;14.26;57.95
78488;BME280;67885;49.758;9.582;2023-03-14T00:54:38;97393.38;;;14.27;57.95
78488;BME280;67885;49.758;9.582;2023-03-14T00:57:05;97389.50;;;14.30;58.49
78488;BME280;67885;49.758;9.582;2023-03-14T00:59:32;97389.91;;;14.33;57.86
78488;BME280;67885;49.758;9.582;2023-03-14T01:01:59;97359.97;;;14.25;56.96
78488;BME280;67885;49.758;9.582;2023-03-14T01:04:25;97368.88;;;14.39;56.34
78488;BME280;67885;49.758;9.582;2023-03-14T01:06:53;97380.97;;;14.41;56.72
78488;BME280;67885;49.758;9.582;2023-03-14T01:09:20;97379.31;;;14.40;57.16
78488;BME280;67885;49.758;9.582;2023-03-14T01:11:46;97383.66;;;14.41;56.37
78488;BME280;67885;49.758;9.582;2023-03-14T01:14:14;97391.84;;;14.40;56.85
78488;BME280;67885;49.758;9.582;2023-03-14T01:16:41;97389.16;;;14.40;56.82
78488;BME280;67885;49.758;9.582;2023-03-14T01:19:08;97382.63;;;14.42;56.49
78488;BME280;67885;49.758;9.582;2023-03-14T01:21:36;97375.25;;;14.44;55.82
78488;BME280;67885;49.758;9.582;2023-03-14T01:24:05;97385.91;;;14.44;55.95
78488;BME280;67885;49.758;9.582;2023-03-14T01:26:34;97319.66;;;14.06;56.53
78488;BME280;67885;49.758;9.582;2023-03-14T01:29:02;97394.09;;;14.43;56.18
78488;BME280;67885;49.758;9.582;2023-03-14T01:31:29;97382.25;;;14.45;56.34
78488;BME280;67885;49.758;9.582;2023-03-14T01:33:56;97374.84;;;14.41;55.53
78488;BME280;67885;49.758;9.582;2023-03-14T01:36:22;97351.38;;;14.29;55.93
78488;BME280;67885;49.758;9.582;2023-03-14T01:38:49;97292.72;;;13.94;56.43
78488;BME280;67885;49.758;9.582;2023-03-14T01:41:20;97356.75;;;14.36;55.62
78488;BME280;67885;49.758;9.582;2023-03-14T01:43:48;97344.09;;;14.38;55.90
78488;BME280;67885;49.758;9.582;2023-03-14T01:46:20;97316.16;;;14.27;55.00
78488;BME280;67885;49.758;9.582;2023-03-14T01:48:55;97320.03;;;14.25;55.07
78488;BME280;67885;49.758;9.582;2023-03-14T01:51:27;97342.84;;;14.34;55.78
78488;BME280;67885;49.758;9.582;2023-03-14T01:54:02;97346.06;;;14.29;55.10
78488;BME280;67885;49.758;9.582;2023-03-14T01:56:31;97322.63;;;14.18;55.38
78488;BME280;67885;49.758;9.582;2023-03-14T01:59:03;97329.28;;;14.29;55.22
78488;BME280;67885;49.758;9.582;2023-03-14T02:01:34;97317.81;;;14.28;54.85
78488;BME280;67885;49.758;9.582;2023-03-14T02:04:05;97301.81;;;14.28;55.47
78488;BME280;67885;49.758;9.582;2023-03-14T02:06:42;97252.50;;;14.04;54.63
78488;BME280;67885;49.758;9.582;2023-03-14T02:09:10;97281.09;;;14.24;55.57
78488;BME280;67885;49.758;9.582;2023-03-14T02:11:38;97234.19;;;13.94;55.04
78488;BME280;67885;49.758;9.582;2023-03-14T02:14:10;97292.94;;;14.21;55.61
78488;BME280;67885;49.758;9.582;2023-03-14T02:16:40;97285.94;;;14.13;55.57
78488;BME280;67885;49.758;9.582;2023-03-14T02:19:10;97226.97;;;13.88;55.46
78488;BME280;67885;49.758;9.582;2023-03-14T02:21:47;97278.88;;;14.27;55.34
78488;BME280;67885;49.758;9.582;2023-03-14T02:24:26;97238.59;;;14.09;55.66
78488;BME280;67885;49.758;9.582;2023-03-14T02:27:06;97275.22;;;14.35;55.27
78488;BME280;67885;49.758;9.582;2023-03-14T02:29:39;97214.03;;;14.07;55.28
78488;BME280;67885;49.758;9.582;2023-03-14T02:32:07;97120.13;;;13.56;55.70
78488;BME280;67885;49.758;9.582;2023-03-14T02:34:35;97240.72;;;14.20;55.09
78488;BME280;67885;49.758;9.582;2023-03-14T02:37:04;97243.25;;;14.28;55.43
78488;BME280;67885;49.758;9.582;2023-03-14T02:39:37;97242.59;;;14.26;56.46
78488;BME280;67885;49.758;9.582;2023-03-14T02:42:05;97260.66;;;14.31;56.50
78488;BME280;67885;49.758;9.582;2023-03-14T02:44:32;97254.47;;;14.24;56.18
78488;BME280;67885;49.758;9.582;2023-03-14T02:47:01;97204.78;;;13.74;56.04
78488;BME280;67885;49.758;9.582;2023-03-14T02:49:31;97257.63;;;14.06;56.70
78488;BME280;67885;49.758;9.582;2023-03-14T02:51:59;97251.66;;;14.04;56.54
78488;BME280;67885;49.758;9.582;2023-03-14T02:54:26;97253.06;;;13.99;57.31
78488;BME280;67885;49.758;9.582;2023-03-14T02:56:53;97260.03;;;14.00;56.44
78488;BME280;67885;49.758;9.582;2023-03-14T02:59:21;97248.56;;;14.00;57.10
78488;BME280;67885;49.758;9.582;2023-03-14T03:01:47;97247.38;;;14.03;56.95
78488;BME280;67885;49.758;9.582;2023-03-14T03:04:14;97229.25;;;13.91;56.68
78488;BME280;67885;49.758;9.582;2023-03-14T03:06:40;97236.34;;;14.06;56.99
78488;BME280;67885;49.758;9.582;2023-03-14T03:09:07;97240.44;;;14.08;56.46
78488;BME280;67885;49.758;9.582;2023-03-14T03:11:34;97240.88;;;14.12;56.29
78488;BME280;67885;49.758;9.582;2023-03-14T03:14:01;97212.88;;;13.94;56.14
78488;BME280;67885;49.758;9.582;2023-03-14T03:16:29;97176.19;;;13.83;55.91
78488;BME280;67885;49.758;9.582;2023-03-14T03:18:55;97225.09;;;14.10;55.87
78488;BME280;67885;49.758;9.582;2023-03-14T03:21:22;97231.66;;;14.14;55.55
78488;BME280;67885;49.758;9.582;2023-03-14T03:23:50;97235.16;;;14.15;56.21
78488;BME280;67885;49.758;9.582;2023-03-14T03:26:17;97191.59;;;13.94;56.08
78488;BME280;67885;49.758;9.582;2023-03-14T03:28:43;97223.94;;;14.20;55.97
78488;BME280;67885;49.758;9.582;2023-03-14T03:31:11;97223.31;;;14.18;56.46
78488;BME280;67885;49.758;9.582;2023-03-14T03:33:39;97228.63;;;14.18;55.71
78488;BME280;67885;49.758;9.582;2023-03-14T03:36:07;97239.09;;;14.19;55.68
78488;BME280;67885;49.758;9.582;2023-03-14T03:38:34;97233.75;;;14.19;56.58
78488;BME280;67885;49.758;9.582;2023-03-14T03:41:02;97234.78;;;14.18;56.47
78488;BME280;67885;49.758;9.582;2023-03-14T03:43:29;97223.47;;;14.16;56.30
78488;BME280;67885;49.758;9.582;2023-03-14T03:45:56;97218.91;;;14.03;56.71
78488;BME280;67885;49.758;9.582;2023-03-14T03:48:23;97223.44;;;14.09;56.51
78488;BME280;67885;49.758;9.582;2023-03-14T03:50:51;97207.06;;;14.06;56.96
78488;BME280;67885;49.758;9.582;2023-03-14T03:53:17;97192.09;;;14.05;57.21
78488;BME280;67885;49.758;9.582;2023-03-14T03:55:44;97202.16;;;14.09;56.97
78488;BME280;67885;49.758;9.582;2023-03-14T03:58:10;97183.50;;;14.03;56.59
78488;BME280;67885;49.758;9.582;2023-03-14T04:00:37;97200.94;;;14.12;57.16
78488;BME280;67885;49.758;9.582;2023-03-14T04:03:04;97196.25;;;14.14;56.60
78488;BME280;67885;49.758;9.582;2023-03-14T04:05:31;97191.53;;;14.16;56.64
78488;BME280;67885;49.758;9.582;2023-03-14T04:08:01;97179.03;;;14.10;55.96
78488;BME280;67885;49.758;9.582;2023-03-14T04:10:27;97187.91;;;14.24;56.38
78488;BME280;67885;49.758;9.582;2023-03-14T04:12:54;97182.19;;;14.27;55.89
78488;BME280;67885;49.758;9.582;2023-03-14T04:15:21;97183.25;;;14.32;55.67
78488;BME280;67885;49.758;9.582;2023-03-14T04:17:47;97062.88;;;13.60;55.36
78488;BME280;67885;49.758;9.582;2023-03-14T04:20:14;97180.81;;;14.38;55.30
78488;BME280;67885;49.758;9.582;2023-03-14T04:22:41;97194.75;;;14.40;55.34
78488;BME280;67885;49.758;9.582;2023-03-14T04:25:09;97176.94;;;14.40;54.96
78488;BME280;67885;49.758;9.582;2023-03-14T04:27:35;97174.66;;;14.37;55.02
78488;BME280;67885;49.758;9.582;2023-03-14T04:30:02;97163.81;;;14.39;54.81
78488;BME280;67885;49.758;9.582;2023-03-14T04:32:29;97165.69;;;14.45;54.74
78488;BME280;67885;49.758;9.582;2023-03-14T04:34:56;97112.91;;;14.20;53.59
78488;BME280;67885;49.758;9.582;2023-03-14T04:37:22;97158.31;;;14.47;53.63
78488;BME280;67885;49.758;9.582;2023-03-14T04:39:49;97129.13;;;14.25;53.41
78488;BME280;67885;49.758;9.582;2023-03-14T04:42:17;97170.38;;;14.43;52.78
78488;BME280;67885;49.758;9.582;2023-03-14T04:44:43;97171.81;;;14.39;53.19
78488;BME280;67885;49.758;9.582;2023-03-14T04:47:12;97166.69;;;14.37;53.03
78488;BME280;67885;49.758;9.582;2023-03-14T04:49:38;97145.72;;;14.21;53.44
78488;BME280;67885;49.758;9.582;2023-03-14T04:52:05;97166.44;;;14.32;52.91
78488;BME280;67885;49.758;9.582;2023-03-14T04:54:32;97156.59;;;14.26;53.61
78488;BME280;67885;49.758;9.582;2023-03-14T04:56:58;97173.59;;;14.25;53.17
78488;BME280;67885;49.758;9.582;2023-03-14T04:59:26;97149.34;;;14.13;52.40
78488;BME280;67885;49.758;9.582;2023-03-14T05:01:53;97152.44;;;14.16;53.00
78488;BME280;67885;49.758;9.582;2023-03-14T05:04:19;97158.78;;;14.15;52.46
78488;BME280;67885;49.758;9.582;2023-03-14T05:06:46;97162.66;;;14.13;53.31
78488;BME280;67885;49.758;9.582;2023-03-14T05:09:13;97156.53;;;14.12;52.76
78488;BME280;67885;49.758;9.582;2023-03-14T05:11:40;97157.72;;;14.10;53.51
78488;BME280;67885;49.758;9.582;2023-03-14T05:14:07;97158.53;;;14.10;52.64
78488;BME280;67885;49.758;9.582;2023-03-14T05:16:34;97020.50;;;13.30;52.46
78488;BME280;67885;49.758;9.582;2023-03-14T05:19:01;97151.00;;;14.14;52.66
78488;BME280;67885;49.758;9.582;2023-03-14T05:21:28;97099.63;;;13.78;52.00
78488;BME280;67885;49.758;9.582;2023-03-14T05:23:54;97146.28;;;14.16;52.09
78488;BME280;67885;49.758;9.582;2023-03-14T05:26:21;97140.34;;;14.14;52.07
78488;BME280;67885;49.758;9.582;2023-03-14T05:28:47;97099.72;;;13.92;52.61
78488;BME280;67885;49.758;9.582;2023-03-14T05:31:14;97105.06;;;13.98;52.26
78488;BME280;67885;49.758;9.582;2023-03-14T05:33:42;97143.63;;;14.16;52.65
78488;BME280;67885;49.758;9.582;2023-03-14T05:36:08;97138.28;;;14.16;52.82
78488;BME280;67885;49.758;9.582;2023-03-14T05:38:35;97126.56;;;14.04;51.93
78488;BME280;67885;49.758;9.582;2023-03-14T05:41:02;97138.25;;;14.09;52.07
78488;BME280;67885;49.758;9.582;2023-03-14T05:43:28;97134.94;;;14.00;52.05
78488;BME280;67885;49.758;9.582;2023-03-14T05:45:55;97104.78;;;13.87;51.54
78488;BME280;67885;49.758;9.582;2023-03-14T05:48:22;97129.69;;;14.14;51.86
78488;BME280;67885;49.758;9.582;2023-03-14T05:50:54;97073.78;;;13.72;51.27
78488;BME280;67885;49.758;9.582;2023-03-14T05:53:21;97133.66;;;13.90;52.25
78488;BME280;67885;49.758;9.582;2023-03-14T05:55:51;97088.53;;;13.75;52.03
78488;BME280;67885;49.758;9.582;2023-03-14T05:58:17;97137.00;;;14.05;51.87
78488;BME280;67885;49.758;9.582;2023-03-14T06:00:44;97127.63;;;14.09;52.44
78488;BME280;67885;49.758;9.582;2023-03-14T06:03:11;97126.19;;;14.07;51.33
78488;BME280;67885;49.758;9.582;2023-03-14T06:05:37;97125.13;;;14.01;51.88
78488;BME280;67885;49.758;9.582;2023-03-14T06:08:05;97127.16;;;13.99;51.12
78488;BME280;67885;49.758;9.582;2023-03-14T06:10:32;97106.00;;;13.84;51.88
78488;BME280;67885;49.758;9.582;2023-03-14T06:12:58;96964.03;;;12.93;52.18
78488;BME280;67885;49.758;9.582;2023-03-14T06:15:25;97082.69;;;13.58;52.32
78488;BME280;67885;49.758;9.582;2023-03-14T06:17:54;97118.81;;;13.74;52.26
78488;BME280;67885;49.758;9.582;2023-03-14T06:20:21;97130.94;;;13.83;52.39
78488;BME280;67885;49.758;9.582;2023-03-14T06:22:47;97147.31;;;13.80;52.60
78488;BME280;67885;49.758;9.582;2023-03-14T06:25:15;97137.69;;;13.79;52.22
78488;BME280;67885;49.758;9.582;2023-03-14T06:27:42;97039.00;;;13.10;52.72
78488;BME280;67885;49.758;9.582;2023-03-14T06:30:10;97066.25;;;13.19;52.61
78488;BME280;67885;49.758;9.582;2023-03-14T06:32:37;97115.28;;;13.66;52.70
78488;BME280;67885;49.758;9.582;2023-03-14T06:35:04;97120.88;;;13.72;52.41
78488;BME280;67885;49.758;9.582;2023-03-14T06:37:30;97087.78;;;13.53;53.10
78488;BME280;67885;49.758;9.582;2023-03-14T06:39:57;97110.22;;;13.72;52.28
78488;BME280;67885;49.758;9.582;2023-03-14T06:42:25;97113.09;;;13.70;52.80
78488;BME280;67885;49.758;9.582;2023-03-14T06:44:52;97068.28;;;13.45;52.17
78488;BME280;67885;49.758;9.582;2023-03-14T06:47:18;97105.25;;;13.69;52.89
78488;BME280;67885;49.758;9.582;2023-03-14T06:49:45;97106.31;;;13.68;53.00
78488;BME280;67885;49.758;9.582;2023-03-14T06:52:11;97100.34;;;13.65;52.30
78488;BME280;67885;49.758;9.582;2023-03-14T06:54:38;97096.47;;;13.68;53.05
78488;BME280;67885;49.758;9.582;2023-03-14T06:57:04;97094.25;;;13.72;52.08
78488;BME280;67885;49.758;9.582;2023-03-14T06:59:32;97094.25;;;13.72;52.48
78488;BME280;67885;49.758;9.582;2023-03-14T07:01:59;97087.72;;;13.74;52.14
78488;BME280;67885;49.758;9.582;2023-03-14T07:04:26;97095.50;;;13.76;52.30
78488;BME280;67885;49.758;9.582;2023-03-14T07:06:52;97089.41;;;13.82;52.06
78488;BME280;67885;49.758;9.582;2023-03-14T07:09:19;97020.66;;;13.22;52.10
78488;BME280;67885;49.758;9.582;2023-03-14T07:11:45;97102.50;;;13.83;52.86
78488;BME280;67885;49.758;9.582;2023-03-14T07:14:12;97094.75;;;13.89;52.86
78488;BME280;67885;49.758;9.582;2023-03-14T07:16:40;97079.97;;;13.79;51.92
78488;BME280;67885;49.758;9.582;2023-03-14T07:19:07;97103.19;;;13.92;51.82
78488;BME280;67885;49.758;9.582;2023-03-14T07:21:33;97093.78;;;13.96;52.07
78488;BME280;67885;49.758;9.582;2023-03-14T07:24:00;97076.09;;;13.82;52.27
78488;BME280;67885;49.758;9.582;2023-03-14T07:26:26;97093.00;;;14.03;52.09
78488;BME280;67885;49.758;9.582;2023-03-14T07:28:53;97096.28;;;14.05;51.66
78488;BME280;67885;49.758;9.582;2023-03-14T07:31:20;97111.25;;;14.06;51.33
78488;BME280;67885;49.758;9.582;2023-03-14T07:33:48;97106.47;;;14.01;51.91
78488;BME280;67885;49.758;9.582;2023-03-14T07:36:14;97048.00;;;13.66;51.57
78488;BME280;67885;49.758;9.582;2023-03-14T07:38:41;97116.75;;;14.04;51.50
78488;BME280;67885;49.758;9.582;2023-03-14T07:41:08;97115.16;;;14.10;51.24
78488;BME280;67885;49.758;9.582;2023-03-14T07:43:35;97091.97;;;14.04;51.63
78488;BME280;67885;49.758;9.582;2023-03-14T07:46:01;97114.97;;;14.18;52.06
78488;BME280;67885;49.758;9.582;2023-03-14T07:48:28;97102.69;;;14.17;52.04
78488;BME280;67885;49.758;9.582;2023-03-14T07:50:56;97115.63;;;14.27;52.49
78488;BME280;67885;49.758;9.582;2023-03-14T07:53:24;97168.28;;;14.31;52.26
78488;BME280;67885;49.758;9.582;2023-03-14T07:55:52;97125.69;;;14.31;51.58
78488;BME280;67885;49.758;9.582;2023-03-14T07:58:19;97091.19;;;14.10;51.45
78488;BME280;67885;49.758;9.582;2023-03-14T08:00:47;97145.13;;;14.32;52.59
78488;BME280;67885;49.758;9.582;2023-03-14T08:03:13;97125.66;;;14.25;51.93
78488;BME280;67885;49.758;9.582;2023-03-14T08:05:40;97121.31;;;14.17;51.63
78488;BME280;67885;49.758;9.582;2023-03-14T08:08:08;97104.47;;;14.03;52.70
78488;BME280;67885;49.758;9.582;2023-03-14T08:10:35;97147.53;;;14.20;53.42
78488;BME280;67885;49.758;9.582;2023-03-14T08:13:02;97134.81;;;14.15;53.16
78488;BME280;67885;49.758;9.582;2023-03-14T08:15:29;97134.59;;;14.10;53.70
78488;BME280;67885;49.758;9.582;2023-03-14T08:17:56;97151.00;;;14.14;54.45
78488;BME280;67885;49.758;9.582;2023-03-14T08:20:25;97161.69;;;14.21;55.05
78488;BME280;67885;49.758;9.582;2023-03-14T08:22:52;97149.81;;;14.23;54.65
78488;BME280;67885;49.758;9.582;2023-03-14T08:25:20;97161.25;;;14.17;54.80
78488;BME280;67885;49.758;9.582;2023-03-14T08:27:46;97160.84;;;14.13;54.27
78488;BME280;67885;49.758;9.582;2023-03-14T08:30:17;97151.41;;;14.11;55.09
78488;BME280;67885;49.758;9.582;2023-03-14T08:32:44;97161.22;;;14.10;54.64
78488;BME280;67885;49.758;9.582;2023-03-14T08:35:12;97160.78;;;14.07;54.58
78488;BME280;67885;49.758;9.582;2023-03-14T08:37:39;97154.22;;;14.03;55.45
78488;BME280;67885;49.758;9.582;2023-03-14T08:40:08;97162.56;;;13.99;55.37
78488;BME280;67885;49.758;9.582;2023-03-14T08:42:37;97155.00;;;13.96;55.66
78488;BME280;67885;49.758;9.582;2023-03-14T08:45:05;97147.41;;;13.93;56.00
78488;BME280;67885;49.758;9.582;2023-03-14T08:47:32;97153.03;;;13.77;56.06
78488;BME280;67885;49.758;9.582;2023-03-14T08:49:59;97136.06;;;13.85;55.33
78488;BME280;67885;49.758;9.582;2023-03-14T08:52:26;97147.41;;;13.93;56.40
78488;BME280;67885;49.758;9.582;2023-03-14T08:54:52;97144.16;;;13.98;56.29
78488;BME280;67885;49.758;9.582;2023-03-14T08:57:19;97125.06;;;13.88;57.12
78488;BME280;67885;49.758;9.582;2023-03-14T08:59:48;97151.81;;;14.14;56.47
78488;BME280;67885;49.758;9.582;2023-03-14T09:02:15;97127.00;;;14.07;56.23
78488;BME280;67885;49.758;9.582;2023-03-14T09:04:41;97083.31;;;13.88;56.84
78488;BME280;67885;49.758;9.582;2023-03-14T09:07:08;97041.91;;;13.79;56.34
78488;BME280;67885;49.758;9.582;2023-03-14T09:09:35;97121.44;;;14.44;55.78
78488;BME280;67885;49.758;9.582;2023-03-14T09:12:01;97144.22;;;14.53;55.75
78488;BME280;67885;49.758;9.582;2023-03-14T09:14:29;97110.38;;;14.47;55.60
78488;BME280;67885;49.758;9.582;2023-03-14T09:16:56;97137.75;;;14.76;54.46
78488;BME280;67885;49.758;9.582;2023-03-14T09:19:23;97142.50;;;14.80;54.01
78488;BME280;67885;49.758;9.582;2023-03-14T09:21:50;97146.59;;;14.76;53.11
78488;BME280;67885;49.758;9.582;2023-03-14T09:24:17;97137.69;;;14.56;54.36
78488;BME280;67885;49.758;9.582;2023-03-14T09:26:43;97145.38;;;14.79;53.53
78488;BME280;67885;49.758;9.582;2023-03-14T09:29:10;97138.78;;;14.68;54.50
78488;BME280;67885;49.758;9.582;2023-03-14T09:31:36;97123.00;;;14.66;55.03
78488;BME280;67885;49.758;9.582;2023-03-14T09:34:04;97149.84;;;14.78;53.00
78488;BME280;67885;49.758;9.582;2023-03-14T09:36:31;97153.59;;;14.84;54.69
78488;BME280;67885;49.758;9.582;2023-03-14T09:38:58;97122.16;;;14.66;54.96
78488;BME280;67885;49.758;9.582;2023-03-14T09:41:27;97153.19;;;14.94;54.27
78488;BME280;67885;49.758;9.582;2023-03-14T09:44:02;97158.91;;;14.84;54.81
78488;BME280;67885;49.758;9.582;2023-03-14T09:46:33;97155.84;;;14.94;54.61
78488;BME280;67885;49.758;9.582;2023-03-14T09:49:02;97162.66;;;15.03;54.57
78488;BME280;67885;49.758;9.582;2023-03-14T09:51:36;97167.78;;;15.05;54.41
78488;BME280;67885;49.758;9.582;2023-03-14T09:54:05;97170.03;;;15.08;54.45
78488;BME280;67885;49.758;9.582;2023-03-14T09:56:34;97107.03;;;14.73;53.69
78488;BME280;67885;49.758;9.582;2023-03-14T09:59:03;97118.69;;;14.72;53.77
78488;BME280;67885;49.758;9.582;2023-03-14T10:01:33;97167.75;;;14.98;54.60
78488;BME280;67885;49.758;9.582;2023-03-14T10:04:05;97179.25;;;15.12;54.05
78488;BME280;67885;49.758;9.582;2023-03-14T10:06:32;97163.66;;;14.95;53.81
78488;BME280;67885;49.758;9.582;2023-03-14T10:09:02;97171.63;;;14.95;53.99
78488;BME280;67885;49.758;9.582;2023-03-14T10:11:31;97167.28;;;14.81;55.66
78488;BME280;67885;49.758;9.582;2023-03-14T10:14:06;97161.81;;;15.03;53.91
78488;BME280;67885;49.758;9.582;2023-03-14T10:16:35;97178.44;;;15.05;55.11
78488;BME280;67885;49.758;9.582;2023-03-14T10:19:05;97139.63;;;14.89;54.45
78488;BME280;67885;49.758;9.582;2023-03-14T10:21:36;97158.28;;;14.89;54.84
78488;BME280;67885;49.758;9.582;2023-03-14T10:24:16;97155.44;;;14.97;54.91
78488;BME280;67885;49.758;9.582;2023-03-14T10:26:48;97164.50;;;15.09;54.11
78488;BME280;67885;49.758;9.582;2023-03-14T10:29:15;97153.81;;;15.03;54.16
78488;BME280;67885;49.758;9.582;2023-03-14T10:31:48;97161.00;;;15.09;54.66
78488;BME280;67885;49.758;9.582;2023-03-14T10:34:20;97153.63;;;15.11;54.35
78488;BME280;67885;49.758;9.582;2023-03-14T10:36:52;97145.03;;;15.15;54.40
78488;BME280;67885;49.758;9.582;2023-03-14T10:39:27;97130.84;;;15.01;53.72
78488;BME280;67885;49.758;9.582;2023-03-14T10:42:03;97158.97;;;15.31;54.41
78488;BME280;67885;49.758;9.582;2023-03-14T10:44:32;97158.56;;;15.34;55.13
78488;BME280;67885;49.758;9.582;2023-03-14T10:47:03;97160.00;;;15.37;54.32
78488;BME280;67885;49.758;9.582;2023-03-14T10:49:32;97150.16;;;15.30;53.73
78488;BME280;67885;49.758;9.582;2023-03-14T10:52:14;97131.91;;;15.21;54.32
78488;BME280;67885;49.758;9.582;2023-03-14T10:54:47;97151.19;;;15.29;55.17
78488;BME280;67885;49.758;9.582;2023-03-14T10:57:14;97155.50;;;15.24;54.58
78488;BME280;67885;49.758;9.582;2023-03-14T10:59:43;97084.25;;;14.71;54.94
78488;BME280;67885;49.758;9.582;2023-03-14T11:02:28;97128.56;;;14.85;56.07
78488;BME280;67885;49.758;9.582;2023-03-14T11:05:08;97152.16;;;14.88;55.87
78488;BME280;67885;49.758;9.582;2023-03-14T11:07:39;97155.59;;;14.82;57.05
78488;BME280;67885;49.758;9.582;2023-03-14T11:10:19;97147.81;;;14.74;56.84
78488;BME280;67885;49.758;9.582;2023-03-14T11:13:01;97070.56;;;14.25;57.36
78488;BME280;67885;49.758;9.582;2023-03-14T11:15:38;97152.31;;;14.73;56.04
78488;BME280;67885;49.758;9.582;2023-03-14T11:18:41;97105.72;;;14.56;57.54
78488;BME280;67885;49.758;9.582;2023-03-14T11:21:18;97024.63;;;14.03;57.54
78488;BME280;67885;49.758;9.582;2023-03-14T11:23:59;97050.06;;;14.19;56.73
78488;BME280;67885;49.758;9.582;2023-03-14T11:26:35;97150.72;;;14.92;56.91
78488;BME280;67885;49.758;9.582;2023-03-14T11:29:17;97129.97;;;14.74;57.42
78488;BME280;67885;49.758;9.582;2023-03-14T11:31:46;97135.09;;;14.76;57.11
78488;BME280;67885;49.758;9.582;2023-03-14T11:34:17;97153.50;;;14.64;57.89
78488;BME280;67885;49.758;9.582;2023-03-14T11:36:53;97108.28;;;14.36;58.03
78488;BME280;67885;49.758;9.582;2023-03-14T11:39:24;97092.09;;;14.30;58.23
78488;BME280;67885;49.758;9.582;2023-03-14T11:41:58;97134.16;;;14.55;58.26
78488;BME280;67885;49.758;9.582;2023-03-14T11:44:32;97129.44;;;14.44;58.32
78488;BME280;67885;49.758;9.582;2023-03-14T11:47:06;97114.03;;;14.32;58.73
78488;BME280;67885;49.758;9.582;2023-03-14T11:49:40;97117.13;;;14.43;58.67
78488;BME280;67885;49.758;9.582;2023-03-14T11:52:13;97118.13;;;14.28;58.77
78488;BME280;67885;49.758;9.582;2023-03-14T11:54:46;97100.25;;;14.22;57.58
78488;BME280;67885;49.758;9.582;2023-03-14T11:57:17;97134.69;;;14.30;58.19
78488;BME280;67885;49.758;9.582;2023-03-14T11:59:51;97141.88;;;14.30;58.60
78488;BME280;67885;49.758;9.582;2023-03-14T12:02:26;97127.31;;;14.26;58.51
78488;BME280;67885;49.758;9.582;2023-03-14T12:05:22;97132.81;;;14.24;58.31
78488;BME280;67885;49.758;9.582;2023-03-14T12:08:16;97130.56;;;14.21;58.64
78488;BME280;67885;49.758;9.582;2023-03-14T12:10:49;97135.25;;;14.19;59.05
78488;BME280;67885;49.758;9.582;2023-03-14T12:13:20;97129.69;;;14.14;58.55
78488;BME280;67885;49.758;9.582;2023-03-14T12:15:49;97129.44;;;14.02;58.34
78488;BME280;67885;49.758;9.582;2023-03-14T12:18:26;97129.50;;;14.15;58.28
78488;BME280;67885;49.758;9.582;2023-03-14T12:20:55;97132.97;;;14.16;58.34
78488;BME280;67885;49.758;9.582;2023-03-14T12:23:24;97122.91;;;14.05;58.51
78488;BME280;67885;49.758;9.582;2023-03-14T12:26:16;97137.25;;;14.10;58.57
78488;BME280;67885;49.758;9.582;2023-03-14T12:28:49;97138.25;;;14.09;59.01
78488;BME280;67885;49.758;9.582;2023-03-14T12:31:41;97140.50;;;14.06;59.39
78488;BME280;67885;49.758;9.582;2023-03-14T12:34:29;97135.34;;;13.97;58.81
78488;BME280;67885;49.758;9.582;2023-03-14T12:37:12;97069.03;;;13.61;58.66
78488;BME280;67885;49.758;9.582;2023-03-14T12:39:49;97162.41;;;14.08;58.88
78488;BME280;67885;49.758;9.582;2023-03-14T12:42:43;97155.84;;;14.04;58.88
78488;BME280;67885;49.758;9.582;2023-03-14T12:45:24;97150.72;;;14.02;59.62
78488;BME280;67885;49.758;9.582;2023-03-14T12:47:54;97140.72;;;14.04;59.99
78488;BME280;67885;49.758;9.582;2023-03-14T12:50:26;97158.94;;;14.07;59.75
78488;BME280;67885;49.758;9.582;2023-03-14T12:53:31;97152.00;;;14.13;59.25
78488;BME280;67885;49.758;9.582;2023-03-14T12:56:09;97154.22;;;14.09;60.24
78488;BME280;67885;49.758;9.582;2023-03-14T12:58:44;97144.63;;;14.08;59.44
78488;BME280;67885;49.758;9.582;2023-03-14T13:01:18;97183.38;;;14.18;59.61
78488;BME280;67885;49.758;9.582;2023-03-14T13:03:49;97183.56;;;14.16;60.57
78488;BME280;67885;49.758;9.582;2023-03-14T13:06:50;97184.91;;;13.98;60.43
78488;BME280;67885;49.758;9.582;2023-03-14T13:12:19;97235.97;;;13.87;60.15
78488;BME280;67885;49.758;9.582;2023-03-14T13:14:51;97260.88;;;13.79;59.84